Granada Hills, California
Current Conditions -  °F | °C
As of 1:51 AM on Thursday 29 Jan 2015 (Local Time) from KVNY Reporting Station
Clear Clear  
Wind Chill: 65°   Ceiling: Unl
Heat Index: 65°   Visibility: 10mi
Dew Point: 43°   Wind: 10mph
Humidity: 45%   Direction: 10°N
Pressure: 30.06"   Gusts: NA
Location:  34.26°N, 118.52°W
Report Text: KVNY 290951Z AUTO 01009KT 10SM CLR 18/06 A3006 RMK AO2 SLP171 T01830061
Loading
Personal Weather Stations






























Interactive Weather Map New forecast layout! Learn more

10-Day Weather Forecast

Advertisements
Track Severe Weather on mobile